Estherville, IA (51334)

7:11 AM CDT on May 23, 2017 (GMT -0500)
Estherville Municipal | | Change Station
Active Advisory: Flood Warning

Elev 1316 ft 43.41 °N, 94.75 °W | Updated 9 minutes ago

Overcast
Overcast
47 °F
Feels Like 47 °F
N
8
Wind Variable Wind from NNW

Today
High -- | Low -- °F
--% Chance of Precip.
Yesterday
High -- | Low -- °F
Precip. -- in
Pressure 29.84 in
Visibility 10.0 miles
Clouds Few 1400 ft
Overcast 3400 ft
Dew Point 47 °F
Humidity 100%
Rainfall 0.05 in
Snow Depth Not available.
5:47 AM 8:45 PM
Waning Crescent, 8% visible
SPECI KEST 231202Z AUTO 33007KT 10SM FEW014 OVC034 08/08 A2984 RMK AO2 T00830083
Pressure 29.84 in
Visibility 10.0 miles
Clouds Few 1400 ft
Overcast 3400 ft
Dew Point 47 °F
Humidity 100%
Rainfall 0.05 in
Snow Depth Not available.
5:47 AM 8:45 PM
Waning Crescent, 8% visible
SPECI KEST 231202Z AUTO 33007KT 10SM FEW014 OVC034 08/08 A2984 RMK AO2 T00830083

Get Your Daily Forecast Email!

Thanks for signing up!

Be on the lookout for a verification email in your inbox.

You'll start receiving severe weather alerts in your inbox..

×

10-Day Weather Forecast

Almanac

Astronomy

May. 23, 2017 Rise Set
Actual Time
Civil Twilight
Nautical Twilight
Astronomical Twilight
Moon
Length of Visible Light
Length of Day
Tomorrow will be .
, % of the Moon is Illuminated

Today's Extremes

State Highs State Lows

Community

WunderPhotos

Category 6

Welcome to Category 6. This is the collective home for Weather Underground's featured writeups by Dr. Jeff Masters (right), Bob Henson (left), Chris Burt, and other regular contributors.

Nearby

Air Quality

  Air Quality AQ Index Pollutant
Not available.

Snow Depth

Station Depth Elevation

Earthquake Activity

City Distance Mag. Time & Date
Minimum magnitude displayed is 2.5.

Coastal Water Temperatures

Place Temperature

Stations

Nearby Weather Stations

Station Location Temp. Windchill Dew Point Humidity Wind Precip. Elev Updated Type
                   

Watches & Warnings

Flood Warning
Issued: 3:35 AM CDT May. 23, 2017 – National Weather Service

... Flood Warning remains in effect until Wednesday evening...

The Flood Warning continues for
the West Fork Des Moines River at Estherville... or from the
Iowa-Minnesota border... to near Wallingford.
* Until Wednesday evening.
* At 3:00 am Tuesday the stage was 7.8 feet... or 0.2 feet below
flood stage.
* Flood stage is 8.0 feet.
* No flooding is occurring and minor flooding is forecast.
* Forecast... rise to flood stage this afternoon.
* Impact... at 7.0 feet... mike mickelson Park South of Iowa 9 floods.
North Riverside Park north of Iowa 9 floods. Backwater from the
river causes School Creek to affect the low areas of valley drive.


Lat... Lon 4326 9483 4350 9491 4350 9485 4326 9471
      4326 9483